sensor_id;sensor_type;location;lat;lon;timestamp;P1;durP1;ratioP1;P2;durP2;ratioP2
7199;SDS011;3641;49.082;8.200;2022-12-10T00:01:39;35.97;;;18.45;;
7199;SDS011;3641;49.082;8.200;2022-12-10T00:04:07;31.65;;;17.23;;
7199;SDS011;3641;49.082;8.200;2022-12-10T00:06:34;34.10;;;17.15;;
7199;SDS011;3641;49.082;8.200;2022-12-10T00:09:02;33.20;;;17.33;;
7199;SDS011;3641;49.082;8.200;2022-12-10T00:11:31;36.45;;;18.25;;
7199;SDS011;3641;49.082;8.200;2022-12-10T00:13:58;34.15;;;18.30;;
7199;SDS011;3641;49.082;8.200;2022-12-10T00:16:25;32.42;;;16.95;;
7199;SDS011;3641;49.082;8.200;2022-12-10T00:18:53;34.25;;;18.67;;
7199;SDS011;3641;49.082;8.200;2022-12-10T00:21:22;36.60;;;19.40;;
7199;SDS011;3641;49.082;8.200;2022-12-10T00:23:49;33.83;;;17.73;;
7199;SDS011;3641;49.082;8.200;2022-12-10T00:26:18;32.55;;;17.75;;
7199;SDS011;3641;49.082;8.200;2022-12-10T00:28:47;32.47;;;17.33;;
7199;SDS011;3641;49.082;8.200;2022-12-10T00:31:15;34.80;;;18.33;;
7199;SDS011;3641;49.082;8.200;2022-12-10T00:33:43;34.85;;;18.42;;
7199;SDS011;3641;49.082;8.200;2022-12-10T00:36:11;33.25;;;18.63;;
7199;SDS011;3641;49.082;8.200;2022-12-10T00:38:39;32.50;;;17.73;;
7199;SDS011;3641;49.082;8.200;2022-12-10T00:41:07;32.50;;;18.65;;
7199;SDS011;3641;49.082;8.200;2022-12-10T00:43:34;31.95;;;17.65;;
7199;SDS011;3641;49.082;8.200;2022-12-10T00:46:02;32.92;;;18.27;;
7199;SDS011;3641;49.082;8.200;2022-12-10T00:48:29;33.85;;;18.38;;
7199;SDS011;3641;49.082;8.200;2022-12-10T00:50:56;33.97;;;18.00;;
7199;SDS011;3641;49.082;8.200;2022-12-10T00:53:23;36.47;;;18.55;;
7199;SDS011;3641;49.082;8.200;2022-12-10T00:55:50;36.60;;;19.05;;
7199;SDS011;3641;49.082;8.200;2022-12-10T00:58:17;33.05;;;17.75;;
7199;SDS011;3641;49.082;8.200;2022-12-10T01:00:43;34.35;;;18.13;;
7199;SDS011;3641;49.082;8.200;2022-12-10T01:03:11;33.33;;;17.52;;
7199;SDS011;3641;49.082;8.200;2022-12-10T01:05:38;34.55;;;18.85;;
7199;SDS011;3641;49.082;8.200;2022-12-10T01:08:04;34.70;;;18.65;;
7199;SDS011;3641;49.082;8.200;2022-12-10T01:10:31;36.65;;;18.83;;
7199;SDS011;3641;49.082;8.200;2022-12-10T01:12:57;32.28;;;17.75;;
7199;SDS011;3641;49.082;8.200;2022-12-10T01:15:24;34.90;;;19.35;;
7199;SDS011;3641;49.082;8.200;2022-12-10T01:17:50;35.05;;;18.50;;
7199;SDS011;3641;49.082;8.200;2022-12-10T01:20:18;34.65;;;18.73;;
7199;SDS011;3641;49.082;8.200;2022-12-10T01:22:45;37.47;;;19.33;;
7199;SDS011;3641;49.082;8.200;2022-12-10T01:25:11;33.50;;;18.27;;
7199;SDS011;3641;49.082;8.200;2022-12-10T01:27:38;36.20;;;18.83;;
7199;SDS011;3641;49.082;8.200;2022-12-10T01:30:05;34.88;;;18.92;;
7199;SDS011;3641;49.082;8.200;2022-12-10T01:32:32;33.78;;;18.70;;
7199;SDS011;3641;49.082;8.200;2022-12-10T01:34:59;38.67;;;18.67;;
7199;SDS011;3641;49.082;8.200;2022-12-10T01:37:26;39.92;;;19.42;;
7199;SDS011;3641;49.082;8.200;2022-12-10T01:39:53;35.15;;;18.73;;
7199;SDS011;3641;49.082;8.200;2022-12-10T01:42:19;35.72;;;18.45;;
7199;SDS011;3641;49.082;8.200;2022-12-10T01:45:06;35.60;;;19.83;;
7199;SDS011;3641;49.082;8.200;2022-12-10T01:47:35;35.40;;;18.67;;
7199;SDS011;3641;49.082;8.200;2022-12-10T01:50:02;39.05;;;20.98;;
7199;SDS011;3641;49.082;8.200;2022-12-10T01:52:31;36.83;;;18.52;;
7199;SDS011;3641;49.082;8.200;2022-12-10T01:54:58;35.53;;;19.33;;
7199;SDS011;3641;49.082;8.200;2022-12-10T01:57:25;35.72;;;19.10;;
7199;SDS011;3641;49.082;8.200;2022-12-10T01:59:54;36.95;;;18.95;;
7199;SDS011;3641;49.082;8.200;2022-12-10T02:02:26;39.30;;;19.25;;
7199;SDS011;3641;49.082;8.200;2022-12-10T02:05:13;36.22;;;19.52;;
7199;SDS011;3641;49.082;8.200;2022-12-10T02:07:51;37.70;;;19.15;;
7199;SDS011;3641;49.082;8.200;2022-12-10T02:10:25;37.58;;;20.17;;
7199;SDS011;3641;49.082;8.200;2022-12-10T02:13:02;38.88;;;20.50;;
7199;SDS011;3641;49.082;8.200;2022-12-10T02:15:34;37.08;;;19.92;;
7199;SDS011;3641;49.082;8.200;2022-12-10T02:18:07;39.08;;;19.85;;
7199;SDS011;3641;49.082;8.200;2022-12-10T02:20:38;37.78;;;19.88;;
7199;SDS011;3641;49.082;8.200;2022-12-10T02:23:09;37.72;;;19.67;;
7199;SDS011;3641;49.082;8.200;2022-12-10T02:25:39;38.80;;;19.98;;
7199;SDS011;3641;49.082;8.200;2022-12-10T02:28:12;39.47;;;20.63;;
7199;SDS011;3641;49.082;8.200;2022-12-10T02:30:45;37.95;;;20.42;;
7199;SDS011;3641;49.082;8.200;2022-12-10T02:33:14;38.47;;;20.50;;
7199;SDS011;3641;49.082;8.200;2022-12-10T02:35:43;39.90;;;20.60;;
7199;SDS011;3641;49.082;8.200;2022-12-10T02:38:12;38.53;;;19.98;;
7199;SDS011;3641;49.082;8.200;2022-12-10T02:40:43;40.00;;;19.95;;
7199;SDS011;3641;49.082;8.200;2022-12-10T02:43:13;38.70;;;19.20;;
7199;SDS011;3641;49.082;8.200;2022-12-10T02:45:41;37.78;;;19.77;;
7199;SDS011;3641;49.082;8.200;2022-12-10T02:48:10;39.05;;;20.25;;
7199;SDS011;3641;49.082;8.200;2022-12-10T02:50:38;40.25;;;20.00;;
7199;SDS011;3641;49.082;8.200;2022-12-10T02:53:05;38.30;;;20.30;;
7199;SDS011;3641;49.082;8.200;2022-12-10T02:55:37;36.78;;;19.60;;
7199;SDS011;3641;49.082;8.200;2022-12-10T02:58:17;41.28;;;21.73;;
7199;SDS011;3641;49.082;8.200;2022-12-10T03:00:53;36.38;;;20.48;;
7199;SDS011;3641;49.082;8.200;2022-12-10T03:03:28;38.10;;;20.73;;
7199;SDS011;3641;49.082;8.200;2022-12-10T03:06:05;38.10;;;20.40;;
7199;SDS011;3641;49.082;8.200;2022-12-10T03:08:39;42.33;;;21.23;;
7199;SDS011;3641;49.082;8.200;2022-12-10T03:11:11;43.75;;;21.65;;
7199;SDS011;3641;49.082;8.200;2022-12-10T03:13:40;40.58;;;21.30;;
7199;SDS011;3641;49.082;8.200;2022-12-10T03:16:13;39.72;;;20.98;;
7199;SDS011;3641;49.082;8.200;2022-12-10T03:18:42;38.42;;;20.45;;
7199;SDS011;3641;49.082;8.200;2022-12-10T03:21:11;38.38;;;20.55;;
7199;SDS011;3641;49.082;8.200;2022-12-10T03:23:40;39.25;;;20.73;;
7199;SDS011;3641;49.082;8.200;2022-12-10T03:26:09;40.75;;;20.50;;
7199;SDS011;3641;49.082;8.200;2022-12-10T03:28:37;38.90;;;20.85;;
7199;SDS011;3641;49.082;8.200;2022-12-10T03:31:08;44.22;;;20.83;;
7199;SDS011;3641;49.082;8.200;2022-12-10T03:33:38;39.08;;;20.55;;
7199;SDS011;3641;49.082;8.200;2022-12-10T03:36:07;40.90;;;21.65;;
7199;SDS011;3641;49.082;8.200;2022-12-10T03:38:36;40.97;;;21.92;;
7199;SDS011;3641;49.082;8.200;2022-12-10T03:41:03;38.60;;;21.38;;
7199;SDS011;3641;49.082;8.200;2022-12-10T03:43:30;45.88;;;22.48;;
7199;SDS011;3641;49.082;8.200;2022-12-10T03:45:56;42.90;;;21.13;;
7199;SDS011;3641;49.082;8.200;2022-12-10T03:48:23;43.15;;;21.80;;
7199;SDS011;3641;49.082;8.200;2022-12-10T03:50:49;40.88;;;21.38;;
7199;SDS011;3641;49.082;8.200;2022-12-10T03:53:17;43.20;;;22.08;;
7199;SDS011;3641;49.082;8.200;2022-12-10T03:55:44;43.30;;;21.70;;
7199;SDS011;3641;49.082;8.200;2022-12-10T03:58:10;40.90;;;21.08;;
7199;SDS011;3641;49.082;8.200;2022-12-10T04:00:37;43.58;;;21.98;;
7199;SDS011;3641;49.082;8.200;2022-12-10T04:03:03;41.72;;;21.33;;
7199;SDS011;3641;49.082;8.200;2022-12-10T04:05:30;41.42;;;21.52;;
7199;SDS011;3641;49.082;8.200;2022-12-10T04:07:56;45.17;;;22.92;;
7199;SDS011;3641;49.082;8.200;2022-12-10T04:10:24;43.28;;;22.58;;
7199;SDS011;3641;49.082;8.200;2022-12-10T04:12:50;40.72;;;20.85;;
7199;SDS011;3641;49.082;8.200;2022-12-10T04:15:31;42.80;;;21.30;;
7199;SDS011;3641;49.082;8.200;2022-12-10T04:18:26;42.60;;;20.08;;
7199;SDS011;3641;49.082;8.200;2022-12-10T04:20:52;42.67;;;20.38;;
7199;SDS011;3641;49.082;8.200;2022-12-10T04:23:36;40.08;;;21.08;;
7199;SDS011;3641;49.082;8.200;2022-12-10T04:26:22;40.42;;;19.92;;
7199;SDS011;3641;49.082;8.200;2022-12-10T04:29:06;41.15;;;20.50;;
7199;SDS011;3641;49.082;8.200;2022-12-10T04:31:33;39.47;;;20.50;;
7199;SDS011;3641;49.082;8.200;2022-12-10T04:34:00;39.63;;;20.63;;
7199;SDS011;3641;49.082;8.200;2022-12-10T04:36:26;40.30;;;21.13;;
7199;SDS011;3641;49.082;8.200;2022-12-10T04:38:53;37.83;;;19.38;;
7199;SDS011;3641;49.082;8.200;2022-12-10T04:41:19;42.88;;;20.15;;
7199;SDS011;3641;49.082;8.200;2022-12-10T04:43:47;40.10;;;19.90;;
7199;SDS011;3641;49.082;8.200;2022-12-10T04:46:13;40.40;;;20.55;;
7199;SDS011;3641;49.082;8.200;2022-12-10T04:48:40;41.35;;;21.17;;
7199;SDS011;3641;49.082;8.200;2022-12-10T04:51:06;36.22;;;19.30;;
7199;SDS011;3641;49.082;8.200;2022-12-10T04:53:33;42.63;;;20.00;;
7199;SDS011;3641;49.082;8.200;2022-12-10T04:55:59;34.90;;;19.00;;
7199;SDS011;3641;49.082;8.200;2022-12-10T04:58:26;37.53;;;18.92;;
7199;SDS011;3641;49.082;8.200;2022-12-10T05:01:01;36.88;;;19.63;;
7199;SDS011;3641;49.082;8.200;2022-12-10T05:03:28;40.55;;;20.75;;
7199;SDS011;3641;49.082;8.200;2022-12-10T05:05:55;38.10;;;19.45;;
7199;SDS011;3641;49.082;8.200;2022-12-10T05:08:21;43.35;;;19.25;;
7199;SDS011;3641;49.082;8.200;2022-12-10T05:10:48;40.65;;;20.15;;
7199;SDS011;3641;49.082;8.200;2022-12-10T05:13:14;40.03;;;20.10;;
7199;SDS011;3641;49.082;8.200;2022-12-10T05:15:40;37.47;;;18.98;;
7199;SDS011;3641;49.082;8.200;2022-12-10T05:18:08;38.50;;;19.08;;
7199;SDS011;3641;49.082;8.200;2022-12-10T05:20:35;39.65;;;20.40;;
7199;SDS011;3641;49.082;8.200;2022-12-10T05:23:01;40.95;;;19.95;;
7199;SDS011;3641;49.082;8.200;2022-12-10T05:25:45;38.35;;;19.52;;
7199;SDS011;3641;49.082;8.200;2022-12-10T05:28:18;39.88;;;20.35;;
7199;SDS011;3641;49.082;8.200;2022-12-10T05:30:45;39.58;;;19.92;;
7199;SDS011;3641;49.082;8.200;2022-12-10T05:33:13;40.00;;;20.50;;
7199;SDS011;3641;49.082;8.200;2022-12-10T05:35:42;37.38;;;19.23;;
7199;SDS011;3641;49.082;8.200;2022-12-10T05:38:09;37.42;;;19.88;;
7199;SDS011;3641;49.082;8.200;2022-12-10T05:40:36;37.47;;;19.50;;
7199;SDS011;3641;49.082;8.200;2022-12-10T05:43:03;38.95;;;19.48;;
7199;SDS011;3641;49.082;8.200;2022-12-10T05:45:31;40.72;;;19.30;;
7199;SDS011;3641;49.082;8.200;2022-12-10T05:47:58;37.60;;;19.33;;
7199;SDS011;3641;49.082;8.200;2022-12-10T05:50:27;38.13;;;19.75;;
7199;SDS011;3641;49.082;8.200;2022-12-10T05:52:53;39.15;;;19.80;;
7199;SDS011;3641;49.082;8.200;2022-12-10T05:55:20;37.72;;;19.30;;
7199;SDS011;3641;49.082;8.200;2022-12-10T05:57:46;36.08;;;18.73;;
7199;SDS011;3641;49.082;8.200;2022-12-10T06:00:13;38.10;;;18.77;;
7199;SDS011;3641;49.082;8.200;2022-12-10T06:02:40;41.00;;;19.42;;
7199;SDS011;3641;49.082;8.200;2022-12-10T06:05:07;35.95;;;18.58;;
7199;SDS011;3641;49.082;8.200;2022-12-10T06:07:35;39.40;;;19.35;;
7199;SDS011;3641;49.082;8.200;2022-12-10T06:10:01;38.83;;;20.23;;
7199;SDS011;3641;49.082;8.200;2022-12-10T06:12:28;37.17;;;19.27;;
7199;SDS011;3641;49.082;8.200;2022-12-10T06:14:54;43.15;;;19.25;;
7199;SDS011;3641;49.082;8.200;2022-12-10T06:17:21;36.22;;;18.77;;
7199;SDS011;3641;49.082;8.200;2022-12-10T06:19:47;37.05;;;19.50;;
7199;SDS011;3641;49.082;8.200;2022-12-10T06:22:14;35.75;;;18.23;;
7199;SDS011;3641;49.082;8.200;2022-12-10T06:24:42;39.53;;;18.38;;
7199;SDS011;3641;49.082;8.200;2022-12-10T06:27:08;37.60;;;19.50;;
7199;SDS011;3641;49.082;8.200;2022-12-10T06:29:35;36.13;;;18.77;;
7199;SDS011;3641;49.082;8.200;2022-12-10T06:32:01;37.80;;;19.38;;
7199;SDS011;3641;49.082;8.200;2022-12-10T06:34:28;38.97;;;19.13;;
7199;SDS011;3641;49.082;8.200;2022-12-10T06:36:55;39.85;;;19.52;;
7199;SDS011;3641;49.082;8.200;2022-12-10T06:39:21;37.92;;;19.63;;
7199;SDS011;3641;49.082;8.200;2022-12-10T06:41:49;37.92;;;19.60;;
7199;SDS011;3641;49.082;8.200;2022-12-10T06:44:16;37.10;;;19.48;;
7199;SDS011;3641;49.082;8.200;2022-12-10T06:46:42;39.67;;;20.58;;
7199;SDS011;3641;49.082;8.200;2022-12-10T06:49:09;37.00;;;18.83;;
7199;SDS011;3641;49.082;8.200;2022-12-10T06:51:35;37.80;;;19.60;;
7199;SDS011;3641;49.082;8.200;2022-12-10T06:54:03;41.63;;;18.27;;
7199;SDS011;3641;49.082;8.200;2022-12-10T06:56:30;34.42;;;18.17;;
7199;SDS011;3641;49.082;8.200;2022-12-10T06:58:58;36.45;;;18.65;;
7199;SDS011;3641;49.082;8.200;2022-12-10T07:01:24;34.88;;;18.00;;
7199;SDS011;3641;49.082;8.200;2022-12-10T07:03:52;34.67;;;17.42;;
7199;SDS011;3641;49.082;8.200;2022-12-10T07:06:20;41.17;;;18.85;;
7199;SDS011;3641;49.082;8.200;2022-12-10T07:08:47;35.58;;;18.08;;
7199;SDS011;3641;49.082;8.200;2022-12-10T07:11:14;32.35;;;17.67;;
7199;SDS011;3641;49.082;8.200;2022-12-10T07:13:43;31.50;;;16.75;;
7199;SDS011;3641;49.082;8.200;2022-12-10T07:16:14;34.35;;;17.33;;
7199;SDS011;3641;49.082;8.200;2022-12-10T07:18:42;33.25;;;17.55;;
7199;SDS011;3641;49.082;8.200;2022-12-10T07:21:12;33.78;;;16.50;;
7199;SDS011;3641;49.082;8.200;2022-12-10T07:23:40;30.02;;;16.35;;
7199;SDS011;3641;49.082;8.200;2022-12-10T07:26:06;33.75;;;17.85;;
7199;SDS011;3641;49.082;8.200;2022-12-10T07:28:33;29.98;;;15.98;;
7199;SDS011;3641;49.082;8.200;2022-12-10T07:31:00;34.20;;;16.00;;
7199;SDS011;3641;49.082;8.200;2022-12-10T07:33:28;30.35;;;15.90;;
7199;SDS011;3641;49.082;8.200;2022-12-10T07:35:55;34.65;;;17.77;;
7199;SDS011;3641;49.082;8.200;2022-12-10T07:38:22;35.88;;;17.17;;
7199;SDS011;3641;49.082;8.200;2022-12-10T07:40:48;36.35;;;18.25;;
7199;SDS011;3641;49.082;8.200;2022-12-10T07:43:15;37.53;;;19.55;;
7199;SDS011;3641;49.082;8.200;2022-12-10T07:45:41;38.38;;;19.52;;
7199;SDS011;3641;49.082;8.200;2022-12-10T07:48:09;36.05;;;18.52;;
7199;SDS011;3641;49.082;8.200;2022-12-10T07:50:37;35.50;;;17.75;;
7199;SDS011;3641;49.082;8.200;2022-12-10T07:53:03;32.95;;;17.25;;
7199;SDS011;3641;49.082;8.200;2022-12-10T07:55:31;36.13;;;17.77;;
7199;SDS011;3641;49.082;8.200;2022-12-10T07:57:57;33.88;;;17.80;;
7199;SDS011;3641;49.082;8.200;2022-12-10T08:00:24;38.33;;;17.48;;
7199;SDS011;3641;49.082;8.200;2022-12-10T08:02:50;35.33;;;18.48;;
7199;SDS011;3641;49.082;8.200;2022-12-10T08:05:17;36.85;;;18.02;;
7199;SDS011;3641;49.082;8.200;2022-12-10T08:07:44;33.47;;;18.10;;
7199;SDS011;3641;49.082;8.200;2022-12-10T08:10:11;35.10;;;17.75;;
7199;SDS011;3641;49.082;8.200;2022-12-10T08:12:37;32.28;;;16.95;;
7199;SDS011;3641;49.082;8.200;2022-12-10T08:15:04;30.05;;;16.13;;
7199;SDS011;3641;49.082;8.200;2022-12-10T08:17:31;32.55;;;17.33;;
7199;SDS011;3641;49.082;8.200;2022-12-10T08:20:01;31.75;;;16.63;;
7199;SDS011;3641;49.082;8.200;2022-12-10T08:22:27;31.42;;;16.98;;
7199;SDS011;3641;49.082;8.200;2022-12-10T08:24:55;34.65;;;17.17;;
7199;SDS011;3641;49.082;8.200;2022-12-10T08:27:21;31.45;;;16.83;;
7199;SDS011;3641;49.082;8.200;2022-12-10T08:29:48;32.13;;;17.05;;
7199;SDS011;3641;49.082;8.200;2022-12-10T08:32:14;32.78;;;17.75;;
7199;SDS011;3641;49.082;8.200;2022-12-10T08:34:41;33.20;;;17.48;;
7199;SDS011;3641;49.082;8.200;2022-12-10T08:37:07;36.38;;;18.08;;
7199;SDS011;3641;49.082;8.200;2022-12-10T08:39:34;37.17;;;17.77;;
7199;SDS011;3641;49.082;8.200;2022-12-10T08:42:02;29.65;;;15.68;;
7199;SDS011;3641;49.082;8.200;2022-12-10T08:44:28;32.40;;;18.05;;
7199;SDS011;3641;49.082;8.200;2022-12-10T08:46:55;30.02;;;16.00;;
7199;SDS011;3641;49.082;8.200;2022-12-10T08:49:21;31.17;;;16.77;;
7199;SDS011;3641;49.082;8.200;2022-12-10T08:51:48;30.05;;;16.27;;
7199;SDS011;3641;49.082;8.200;2022-12-10T08:54:14;27.60;;;15.35;;
7199;SDS011;3641;49.082;8.200;2022-12-10T08:56:41;31.25;;;16.80;;
7199;SDS011;3641;49.082;8.200;2022-12-10T08:59:08;29.17;;;16.08;;
7199;SDS011;3641;49.082;8.200;2022-12-10T09:01:35;30.13;;;16.27;;
7199;SDS011;3641;49.082;8.200;2022-12-10T09:04:01;29.70;;;16.55;;
7199;SDS011;3641;49.082;8.200;2022-12-10T09:06:28;34.83;;;16.33;;
7199;SDS011;3641;49.082;8.200;2022-12-10T09:08:55;28.77;;;16.38;;
7199;SDS011;3641;49.082;8.200;2022-12-10T09:11:23;29.65;;;15.73;;
7199;SDS011;3641;49.082;8.200;2022-12-10T09:13:51;28.10;;;14.90;;
7199;SDS011;3641;49.082;8.200;2022-12-10T09:16:19;27.85;;;15.20;;
7199;SDS011;3641;49.082;8.200;2022-12-10T09:18:46;27.90;;;14.50;;
7199;SDS011;3641;49.082;8.200;2022-12-10T09:21:13;25.88;;;14.48;;
7199;SDS011;3641;49.082;8.200;2022-12-10T09:23:42;27.13;;;14.55;;
7199;SDS011;3641;49.082;8.200;2022-12-10T09:26:10;26.75;;;15.30;;
7199;SDS011;3641;49.082;8.200;2022-12-10T09:28:38;29.40;;;16.52;;
7199;SDS011;3641;49.082;8.200;2022-12-10T09:31:06;26.02;;;14.63;;
7199;SDS011;3641;49.082;8.200;2022-12-10T09:33:34;32.92;;;14.88;;
7199;SDS011;3641;49.082;8.200;2022-12-10T09:36:02;30.30;;;15.27;;
7199;SDS011;3641;49.082;8.200;2022-12-10T09:38:29;30.83;;;15.20;;
7199;SDS011;3641;49.082;8.200;2022-12-10T09:40:57;25.33;;;14.50;;
7199;SDS011;3641;49.082;8.200;2022-12-10T09:43:39;25.05;;;14.30;;
7199;SDS011;3641;49.082;8.200;2022-12-10T09:46:13;26.15;;;14.52;;
7199;SDS011;3641;49.082;8.200;2022-12-10T09:48:54;29.20;;;15.35;;
7199;SDS011;3641;49.082;8.200;2022-12-10T09:51:30;28.40;;;15.30;;
7199;SDS011;3641;49.082;8.200;2022-12-10T09:54:00;27.98;;;14.15;;
7199;SDS011;3641;49.082;8.200;2022-12-10T09:56:30;28.58;;;14.20;;
7199;SDS011;3641;49.082;8.200;2022-12-10T09:59:01;24.58;;;13.68;;
7199;SDS011;3641;49.082;8.200;2022-12-10T10:01:32;25.30;;;14.38;;
7199;SDS011;3641;49.082;8.200;2022-12-10T10:04:03;31.73;;;14.55;;
7199;SDS011;3641;49.082;8.200;2022-12-10T10:06:31;25.77;;;14.05;;
7199;SDS011;3641;49.082;8.200;2022-12-10T10:08:59;22.95;;;13.57;;
7199;SDS011;3641;49.082;8.200;2022-12-10T10:11:29;24.73;;;13.45;;
7199;SDS011;3641;49.082;8.200;2022-12-10T10:13:58;26.65;;;13.88;;
7199;SDS011;3641;49.082;8.200;2022-12-10T10:16:28;23.50;;;12.98;;
7199;SDS011;3641;49.082;8.200;2022-12-10T10:19:01;23.02;;;13.57;;
7199;SDS011;3641;49.082;8.200;2022-12-10T10:21:32;24.70;;;13.70;;
7199;SDS011;3641;49.082;8.200;2022-12-10T10:24:01;24.48;;;14.02;;
7199;SDS011;3641;49.082;8.200;2022-12-10T10:26:28;21.88;;;12.23;;
7199;SDS011;3641;49.082;8.200;2022-12-10T10:28:55;23.75;;;13.07;;
7199;SDS011;3641;49.082;8.200;2022-12-10T10:31:26;24.52;;;13.85;;
7199;SDS011;3641;49.082;8.200;2022-12-10T10:33:55;23.45;;;13.27;;
7199;SDS011;3641;49.082;8.200;2022-12-10T10:36:24;22.52;;;12.38;;
7199;SDS011;3641;49.082;8.200;2022-12-10T10:38:54;23.95;;;13.18;;
7199;SDS011;3641;49.082;8.200;2022-12-10T10:41:20;23.60;;;13.77;;
7199;SDS011;3641;49.082;8.200;2022-12-10T10:43:51;23.88;;;13.10;;
7199;SDS011;3641;49.082;8.200;2022-12-10T10:46:27;26.27;;;14.15;;
7199;SDS011;3641;49.082;8.200;2022-12-10T10:49:12;23.65;;;13.00;;
7199;SDS011;3641;49.082;8.200;2022-12-10T10:51:44;22.27;;;13.25;;
7199;SDS011;3641;49.082;8.200;2022-12-10T10:54:12;24.27;;;13.43;;
7199;SDS011;3641;49.082;8.200;2022-12-10T10:56:57;22.65;;;13.57;;
7199;SDS011;3641;49.082;8.200;2022-12-10T10:59:29;25.05;;;14.80;;
7199;SDS011;3641;49.082;8.200;2022-12-10T11:01:58;27.13;;;13.65;;
7199;SDS011;3641;49.082;8.200;2022-12-10T11:04:30;27.40;;;13.38;;
7199;SDS011;3641;49.082;8.200;2022-12-10T11:07:03;24.90;;;14.60;;
7199;SDS011;3641;49.082;8.200;2022-12-10T11:09:41;24.10;;;14.15;;
7199;SDS011;3641;49.082;8.200;2022-12-10T11:12:20;23.25;;;13.60;;
7199;SDS011;3641;49.082;8.200;2022-12-10T11:14:53;24.50;;;13.52;;
7199;SDS011;3641;49.082;8.200;2022-12-10T11:17:21;24.92;;;13.95;;
7199;SDS011;3641;49.082;8.200;2022-12-10T11:19:54;28.23;;;15.40;;
7199;SDS011;3641;49.082;8.200;2022-12-10T11:22:23;27.88;;;16.52;;
7199;SDS011;3641;49.082;8.200;2022-12-10T11:24:53;24.38;;;13.73;;
7199;SDS011;3641;49.082;8.200;2022-12-10T11:27:32;24.17;;;13.23;;
7199;SDS011;3641;49.082;8.200;2022-12-10T11:30:09;27.08;;;14.43;;
7199;SDS011;3641;49.082;8.200;2022-12-10T11:32:42;26.27;;;14.90;;
7199;SDS011;3641;49.082;8.200;2022-12-10T11:35:23;28.65;;;14.68;;
7199;SDS011;3641;49.082;8.200;2022-12-10T11:38:03;21.80;;;12.02;;
7199;SDS011;3641;49.082;8.200;2022-12-10T11:40:40;22.40;;;12.25;;
7199;SDS011;3641;49.082;8.200;2022-12-10T11:43:18;22.65;;;12.52;;
7199;SDS011;3641;49.082;8.200;2022-12-10T11:46:03;25.52;;;13.18;;
7199;SDS011;3641;49.082;8.200;2022-12-10T11:48:45;28.27;;;14.43;;
7199;SDS011;3641;49.082;8.200;2022-12-10T11:51:22;22.83;;;12.55;;
7199;SDS011;3641;49.082;8.200;2022-12-10T11:54:09;22.83;;;12.48;;
7199;SDS011;3641;49.082;8.200;2022-12-10T11:56:48;21.23;;;12.32;;
7199;SDS011;3641;49.082;8.200;2022-12-10T11:59:20;21.13;;;12.48;;
7199;SDS011;3641;49.082;8.200;2022-12-10T12:01:59;22.27;;;12.55;;
7199;SDS011;3641;49.082;8.200;2022-12-10T12:04:45;23.02;;;11.95;;
7199;SDS011;3641;49.082;8.200;2022-12-10T12:07:29;21.60;;;11.57;;
7199;SDS011;3641;49.082;8.200;2022-12-10T12:13:02;22.10;;;10.88;;
7199;SDS011;3641;49.082;8.200;2022-12-10T12:15:34;22.13;;;12.05;;
7199;SDS011;3641;49.082;8.200;2022-12-10T12:18:07;21.35;;;12.75;;
7199;SDS011;3641;49.082;8.200;2022-12-10T12:20:42;21.23;;;12.60;;
7199;SDS011;3641;49.082;8.200;2022-12-10T12:23:14;19.35;;;11.55;;
7199;SDS011;3641;49.082;8.200;2022-12-10T12:25:44;21.80;;;11.30;;
7199;SDS011;3641;49.082;8.200;2022-12-10T12:28:15;19.38;;;10.90;;
7199;SDS011;3641;49.082;8.200;2022-12-10T12:30:47;19.98;;;11.35;;
7199;SDS011;3641;49.082;8.200;2022-12-10T12:33:20;22.85;;;11.90;;
7199;SDS011;3641;49.082;8.200;2022-12-10T12:35:55;20.55;;;11.13;;
7199;SDS011;3641;49.082;8.200;2022-12-10T12:38:27;20.70;;;11.60;;
7199;SDS011;3641;49.082;8.200;2022-12-10T12:40:56;25.20;;;13.40;;
7199;SDS011;3641;49.082;8.200;2022-12-10T12:43:31;21.83;;;11.52;;
7199;SDS011;3641;49.082;8.200;2022-12-10T12:46:09;19.08;;;10.98;;
7199;SDS011;3641;49.082;8.200;2022-12-10T12:48:38;19.85;;;11.48;;
7199;SDS011;3641;49.082;8.200;2022-12-10T12:51:12;18.27;;;10.82;;
7199;SDS011;3641;49.082;8.200;2022-12-10T12:53:42;18.70;;;10.55;;
7199;SDS011;3641;49.082;8.200;2022-12-10T12:56:10;22.40;;;11.57;;
7199;SDS011;3641;49.082;8.200;2022-12-10T12:58:51;18.35;;;10.57;;
7199;SDS011;3641;49.082;8.200;2022-12-10T13:01:30;21.77;;;12.23;;
7199;SDS011;3641;49.082;8.200;2022-12-10T13:04:00;19.90;;;11.93;;
7199;SDS011;3641;49.082;8.200;2022-12-10T13:06:29;20.15;;;11.63;;
7199;SDS011;3641;49.082;8.200;2022-12-10T13:08:57;22.42;;;12.88;;
7199;SDS011;3641;49.082;8.200;2022-12-10T13:11:42;20.70;;;10.80;;
7199;SDS011;3641;49.082;8.200;2022-12-10T13:22:56;17.33;;;10.32;;
7199;SDS011;3641;49.082;8.200;2022-12-10T13:25:37;16.83;;;10.45;;
7199;SDS011;3641;49.082;8.200;2022-12-10T13:28:22;20.27;;;10.98;;
7199;SDS011;3641;49.082;8.200;2022-12-10T13:34:04;23.63;;;11.15;;
7199;SDS011;3641;49.082;8.200;2022-12-10T13:39:45;21.73;;;11.70;;
7199;SDS011;3641;49.082;8.200;2022-12-10T13:42:24;20.25;;;11.68;;
7199;SDS011;3641;49.082;8.200;2022-12-10T13:45:28;24.27;;;13.07;;
7199;SDS011;3641;49.082;8.200;2022-12-10T13:48:22;25.75;;;13.57;;
7199;SDS011;3641;49.082;8.200;2022-12-10T13:50:55;25.05;;;13.15;;
7199;SDS011;3641;49.082;8.200;2022-12-10T13:53:40;23.98;;;13.82;;
7199;SDS011;3641;49.082;8.200;2022-12-10T13:56:18;22.35;;;12.73;;
7199;SDS011;3641;49.082;8.200;2022-12-10T13:58:55;24.63;;;13.20;;
7199;SDS011;3641;49.082;8.200;2022-12-10T14:01:41;25.88;;;13.60;;
7199;SDS011;3641;49.082;8.200;2022-12-10T14:07:14;20.75;;;11.95;;
7199;SDS011;3641;49.082;8.200;2022-12-10T14:09:45;20.88;;;12.23;;
7199;SDS011;3641;49.082;8.200;2022-12-10T14:12:17;20.63;;;11.30;;
7199;SDS011;3641;49.082;8.200;2022-12-10T14:14:50;17.95;;;10.65;;
7199;SDS011;3641;49.082;8.200;2022-12-10T14:17:23;18.65;;;10.82;;
7199;SDS011;3641;49.082;8.200;2022-12-10T14:19:57;17.20;;;11.30;;
7199;SDS011;3641;49.082;8.200;2022-12-10T14:22:27;19.77;;;11.45;;
7199;SDS011;3641;49.082;8.200;2022-12-10T14:24:58;21.13;;;11.80;;
7199;SDS011;3641;49.082;8.200;2022-12-10T14:27:26;20.88;;;11.65;;
7199;SDS011;3641;49.082;8.200;2022-12-10T14:29:57;20.90;;;11.20;;
7199;SDS011;3641;49.082;8.200;2022-12-10T14:32:27;19.88;;;11.20;;
7199;SDS011;3641;49.082;8.200;2022-12-10T14:34:59;19.73;;;11.70;;
7199;SDS011;3641;49.082;8.200;2022-12-10T14:37:28;18.20;;;10.52;;
7199;SDS011;3641;49.082;8.200;2022-12-10T14:39:57;19.58;;;11.30;;
7199;SDS011;3641;49.082;8.200;2022-12-10T14:42:24;19.88;;;11.55;;
7199;SDS011;3641;49.082;8.200;2022-12-10T14:44:51;19.83;;;11.30;;
7199;SDS011;3641;49.082;8.200;2022-12-10T14:47:27;17.92;;;10.82;;
7199;SDS011;3641;49.082;8.200;2022-12-10T14:50:00;23.13;;;12.95;;
7199;SDS011;3641;49.082;8.200;2022-12-10T14:52:30;24.15;;;13.77;;
7199;SDS011;3641;49.082;8.200;2022-12-10T14:55:00;21.45;;;12.80;;
7199;SDS011;3641;49.082;8.200;2022-12-10T14:57:29;24.63;;;12.55;;
7199;SDS011;3641;49.082;8.200;2022-12-10T15:00:03;21.65;;;12.50;;
7199;SDS011;3641;49.082;8.200;2022-12-10T15:02:33;26.65;;;14.45;;
7199;SDS011;3641;49.082;8.200;2022-12-10T15:05:04;23.25;;;13.48;;
7199;SDS011;3641;49.082;8.200;2022-12-10T15:07:38;23.38;;;13.15;;
7199;SDS011;3641;49.082;8.200;2022-12-10T15:10:07;21.13;;;12.35;;
7199;SDS011;3641;49.082;8.200;2022-12-10T15:12:41;22.85;;;12.73;;
7199;SDS011;3641;49.082;8.200;2022-12-10T15:15:12;22.55;;;13.05;;
7199;SDS011;3641;49.082;8.200;2022-12-10T15:17:42;23.75;;;13.50;;
7199;SDS011;3641;49.082;8.200;2022-12-10T15:20:21;27.52;;;14.10;;
7199;SDS011;3641;49.082;8.200;2022-12-10T15:22:49;23.08;;;12.25;;
7199;SDS011;3641;49.082;8.200;2022-12-10T15:25:20;24.95;;;13.35;;
7199;SDS011;3641;49.082;8.200;2022-12-10T15:27:55;25.52;;;14.40;;